Airfield :
LOGIN :

Register | Disclaimer

   EN    FR    IT 

 










Legend :    VFR   Marginal VFR   IFR   Intensive IFR   Very Intensive IFR
Visi :
Ceiling :
>= 8 km
>= 3000ft
5 to 8 km
1000 to 3000 ft
1500m to 5 km
500 to 1000 ft
800 to 1500m
200 to 500 ft
< 800m
< 200 ft
Symbols :   Thunderstorms  Fog  Heavy snow  Heavy precipitations  Wind > 20 kt
SIGMETs :     Misc.  Thunderstorms  Icing  Turbulence  Mountain Waves  Volcanic Ashes







- Airport Elevation : 502 ft
- IATA code : ORK


EICK - Cork

CURRENT METAR :
  • 171130Z 25009KT 9999 BKN004 BKN010 11/11 Q1021 TEMPO 3000

EXPIRED METARs :
  • 171100Z 25009KT 9999 BKN003 10/10 Q1021 TEMPO 3000
  • 171030Z 24010KT 9999 BKN003 10/10 Q1021 TEMPO 3000
  • 171000Z 24010KT 9999 BKN004 10/10 Q1021 TEMPO 3000
  • 170930Z 24011KT 9999 BKN004 10/10 Q1021 TEMPO 3000
  • 170900Z 25013KT 6000 -DZ BKN004 10/10 Q1020 TEMPO 3000

TAF TAF EICK
Valid from the 17 at 12:00 until the 18 at 12:00 UTC


171100Z 1712/1812 25010KT 7000 BKN003
TEMPO 1712/1715 2000 -DZ BR
BECMG 1715/1717 SCT010 BKN020
BECMG 1721/1724 VRB03KT
BECMG 1723/1802 3000 BR BKN005
TEMPO 1802/1811 0200 FG BKN001
No reported NOTAMs for that airfield.



MET'MAP, your aeronautical weather chart ! - Copyright ORBIFLY December 2007 - Disclaimer

ORBIFLY MET'MAP TEAM :

Programming & Development : Alexandra Zaïnal
Concept & Development : Baudouin d'Aumeries
Co-Development & Prog : Marc-Olivier Méhu
Technical & hardware support : Manuel Goepfert

Contact : metmap@orbifly.com




SOURCES & CREDITS :

   NOAA